Danmark — OXDK — position and weather

sailwx.info

Track history (hours):
 
Tides and Currents Weather Stations Pressure Air Temp Water Temp Dewpoint Dewpoint Depression Visibility Wind Speed Wind Dir Waves Ship Positions

Danmark (Denmark)

Last reported at 2020-Aug-08 04:58 UTC. Time now 2020-Aug-10 02:44 UTC.
Position N 57°26' E 010°32'.

Length 60 m; beam 10 m; draft 5 m.

Type: Sailing vessel. MMSI: 219500000.

Date/timePositionNaut miles runAvg speedWind from/ knotsBaromVisibWave heightAir tempDewpointWater temp
2020-Aug-08 04:58N 57°26' E 010°32'0 0.0
2020-Aug-08 03:58N 57°26' E 010°32'0 0.0
2020-Aug-08 03:28N 57°26' E 010°32'0 0.0
2020-Aug-08 02:55N 57°26' E 010°32'0 0.0
2020-Aug-08 00:58N 57°26' E 010°32'0 0.0
2020-Aug-07 23:58N 57°26' E 010°32'0 0.0
2020-Aug-07 21:58N 57°26' E 010°32'0 0.0
2020-Aug-07 19:28N 57°26' E 010°32'0 0.0
2020-Aug-07 17:25N 57°26' E 010°32'0 0.0
2020-Aug-07 16:25N 57°26' E 010°32'0 0.0
2020-Aug-07 13:58N 57°26' E 010°32'0 0.0
2020-Aug-07 12:58N 57°26' E 010°32'0 0.0
2020-Aug-07 12:22N 57°26' E 010°32'0 0.0
2020-Aug-07 10:28N 57°26' E 010°32'0 0.0
2020-Aug-07 09:55N 57°26' E 010°32'0 0.0
2020-Aug-07 06:28N 57°26' E 010°32'0 0.0
2020-Aug-07 04:55N 57°26' E 010°32'0 0.0
2020-Aug-07 04:28N 57°26' E 010°32'0 0.0
2020-Aug-07 03:58N 57°26' E 010°32'0 0.0
2020-Aug-07 03:25N 57°26' E 010°32'0 0.0
2020-Aug-07 00:58N 57°26' E 010°32'0 0.0
2020-Aug-06 23:28N 57°26' E 010°32'0 0.0
2020-Aug-06 21:28N 57°26' E 010°32'0 0.0
2020-Aug-06 19:58N 57°26' E 010°32'0 0.0
2020-Aug-06 15:58N 57°26' E 010°32'0 0.0
2020-Aug-06 13:28N 57°26' E 010°32'0 0.0
2020-Aug-06 05:58N 57°26' E 010°32'0 0.0
2020-Aug-06 05:28N 57°26' E 010°32'0 0.0
2020-Aug-06 04:28N 57°26' E 010°32'0 0.0
2020-Aug-06 03:58N 57°26' E 010°32'0 0.0
2020-Aug-06 01:55N 57°26' E 010°32'0 0.0
2020-Aug-06 01:28N 57°26' E 010°32'0 0.0
2020-Aug-05 22:25N 57°26' E 010°32'0 0.0
2020-Aug-05 19:58N 57°26' E 010°32'0 0.0
2020-Aug-05 19:28N 57°26' E 010°32'0 0.0
2020-Aug-05 17:30N 57°26' E 010°32'0 0.0
2020-Aug-05 13:54N 57°26' E 010°32'0 0.0
2020-Aug-05 13:00N 57°26' E 010°32'0 0.0
2020-Aug-05 12:30N 57°26' E 010°32'0 0.0
2020-Aug-05 09:27N 57°26' E 010°32'0 0.0
2020-Aug-05 06:30N 57°26' E 010°32'0 0.0
2020-Aug-05 04:21N 57°26' E 010°32'0 0.0
2020-Aug-05 00:27N 57°26' E 010°32'0 0.0
2020-Aug-04 22:30N 57°26' E 010°32'0 0.0
2020-Aug-04 21:00N 57°26' E 010°32'0 0.0
2020-Aug-04 20:00N 57°26' E 010°32'0 0.0
2020-Aug-04 17:00N 57°26' E 010°32'0 0.0
2020-Aug-04 11:00N 57°26' E 010°32'0 0.0
2020-Aug-04 09:30N 57°26' E 010°32'0 0.0
2020-Aug-04 08:57N 57°26' E 010°32'0 0.0
2020-Aug-04 08:30N 57°26' E 010°32'0 0.0
2020-Aug-04 04:57N 57°26' E 010°32'0 0.0
2020-Aug-04 04:00N 57°26' E 010°32'0 0.0
2020-Aug-04 03:00N 57°26' E 010°32'0 0.0
2020-Aug-03 22:21N 57°26' E 010°32'0 0.0
2020-Aug-03 17:30N 57°26' E 010°32'0 0.0
2020-Aug-03 16:30N 57°26' E 010°32'0 0.0
2020-Aug-03 15:30N 57°26' E 010°32'0 0.0
2020-Aug-03 12:57N 57°26' E 010°32'0 0.0
2020-Aug-03 11:00N 57°26' E 010°32'0 0.0
2020-Aug-03 10:00N 57°26' E 010°32'0 0.0
2020-Aug-03 09:30N 57°26' E 010°32'0 0.0
2020-Aug-03 08:54N 57°26' E 010°32'0 0.0
2020-Aug-03 06:57N 57°26' E 010°32'0 0.0
2020-Aug-03 05:24N 57°26' E 010°32'0 0.0
2020-Aug-03 04:30N 57°26' E 010°32'0 0.0
2020-Aug-03 03:27N 57°26' E 010°32'0 0.0
2020-Aug-02 23:57N 57°26' E 010°32'0 0.0
2020-Aug-02 17:30N 57°26' E 010°32'0 0.0
2020-Aug-02 16:31N 57°26' E 010°32'5 1.7
2020-Aug-02 13:31N 57°22' E 010°39'1 2.3
2020-Aug-02 13:00N 57°21' E 010°40'1 2.6
2020-Aug-02 12:31N 57°20' E 010°41'7 3.6
2020-Aug-02 10:29N 57°13' E 010°44'3 7.2
2020-Aug-02 10:00N 57°09' E 010°45'32 6.3
2020-Aug-02 04:51N 56°38' E 011°02'4 6.7
2020-Aug-02 04:18N 56°35' E 011°02'1 4.7
2020-Aug-02 04:00N 56°33' E 011°01'4 4.4
2020-Aug-02 03:00N 56°29' E 011°03'5 5.2
2020-Aug-02 02:00N 56°24' E 011°04'6 6.0
2020-Aug-02 01:00N 56°18' E 010°60'13 5.4
2020-Aug-01 22:30N 56°07' E 010°46'36 5.4
2020-Aug-01 15:50N 55°38' E 010°09'1 0.2
2020-Aug-01 11:22N 55°37' E 010°10'0 0.0
2020-Aug-01 09:01N 55°37' E 010°10'0 0.0
2020-Aug-01 05:28N 55°37' E 010°10'0 0.0
2020-Aug-01 02:58N 55°37' E 010°10'0 0.0
2020-Aug-01 02:28N 55°37' E 010°10'0 0.0
2020-Aug-01 00:22N 55°37' E 010°10'0 0.0
2020-Jul-31 23:58N 55°37' E 010°10'4 0.3
2020-Jul-31 10:00N 55°40' E 010°04'6 0.3
2020-Jul-30 13:22N 55°39' E 010°14'11 3.7
2020-Jul-30 10:30N 55°46' E 010°28'8 5.5
2020-Jul-30 09:00N 55°54' E 010°29'3 6.9
2020-Jul-30 08:31N 55°58' E 010°29'11 4.5
2020-Jul-30 06:00N 56°06' E 010°15'0 0.0
2020-Jul-30 04:00N 56°06' E 010°15'0 0.0
2020-Jul-29 21:00N 56°06' E 010°15'0 0.0
2020-Jul-29 20:30N 56°06' E 010°15'0 0.0
2020-Jul-29 19:30N 56°06' E 010°15'0 0.0
2020-Jul-29 17:00N 56°06' E 010°15'0 0.0
2020-Jul-29 16:30N 56°06' E 010°15'0 0.0
2020-Jul-29 15:30N 56°06' E 010°15'0 0.0
2020-Jul-29 14:30N 56°06' E 010°15'0 0.0
2020-Jul-29 09:30N 56°06' E 010°15'0 0.0
2020-Jul-29 05:00N 56°06' E 010°15'  
Track history (hours):
 
Tides and Currents Weather Stations Pressure Air Temp Water Temp Dewpoint Dewpoint Depression Visibility Wind Speed Wind Dir Waves Ship Positions

Danmark (Denmark)

Last reported at 2020-Aug-08 04:58 UTC. Time now 2020-Aug-10 02:44 UTC.
Position N 57°26' E 010°32'.

Length 60 m; beam 10 m; draft 5 m.

Type: Sailing vessel. MMSI: 219500000.

Date/timePositionNaut miles runAvg speedWind from/ knotsBaromVisibWave heightAir tempDewpointWater temp
2020-Aug-08 04:58N 57°26' E 010°32'0 0.0
2020-Aug-08 03:58N 57°26' E 010°32'0 0.0
2020-Aug-08 03:28N 57°26' E 010°32'0 0.0
2020-Aug-08 02:55N 57°26' E 010°32'0 0.0
2020-Aug-08 00:58N 57°26' E 010°32'0 0.0
2020-Aug-07 23:58N 57°26' E 010°32'0 0.0
2020-Aug-07 21:58N 57°26' E 010°32'0 0.0
2020-Aug-07 19:28N 57°26' E 010°32'0 0.0
2020-Aug-07 17:25N 57°26' E 010°32'0 0.0
2020-Aug-07 16:25N 57°26' E 010°32'0 0.0
2020-Aug-07 13:58N 57°26' E 010°32'0 0.0
2020-Aug-07 12:58N 57°26' E 010°32'0 0.0
2020-Aug-07 12:22N 57°26' E 010°32'0 0.0
2020-Aug-07 10:28N 57°26' E 010°32'0 0.0
2020-Aug-07 09:55N 57°26' E 010°32'0 0.0
2020-Aug-07 06:28N 57°26' E 010°32'0 0.0
2020-Aug-07 04:55N 57°26' E 010°32'0 0.0
2020-Aug-07 04:28N 57°26' E 010°32'0 0.0
2020-Aug-07 03:58N 57°26' E 010°32'0 0.0
2020-Aug-07 03:25N 57°26' E 010°32'0 0.0
2020-Aug-07 00:58N 57°26' E 010°32'0 0.0
2020-Aug-06 23:28N 57°26' E 010°32'0 0.0
2020-Aug-06 21:28N 57°26' E 010°32'0 0.0
2020-Aug-06 19:58N 57°26' E 010°32'0 0.0
2020-Aug-06 15:58N 57°26' E 010°32'0 0.0
2020-Aug-06 13:28N 57°26' E 010°32'0 0.0
2020-Aug-06 05:58N 57°26' E 010°32'0 0.0
2020-Aug-06 05:28N 57°26' E 010°32'0 0.0
2020-Aug-06 04:28N 57°26' E 010°32'0 0.0
2020-Aug-06 03:58N 57°26' E 010°32'0 0.0
2020-Aug-06 01:55N 57°26' E 010°32'0 0.0
2020-Aug-06 01:28N 57°26' E 010°32'0 0.0
2020-Aug-05 22:25N 57°26' E 010°32'0 0.0
2020-Aug-05 19:58N 57°26' E 010°32'0 0.0
2020-Aug-05 19:28N 57°26' E 010°32'0 0.0
2020-Aug-05 17:30N 57°26' E 010°32'0 0.0
2020-Aug-05 13:54N 57°26' E 010°32'0 0.0
2020-Aug-05 13:00N 57°26' E 010°32'0 0.0
2020-Aug-05 12:30N 57°26' E 010°32'0 0.0
2020-Aug-05 09:27N 57°26' E 010°32'0 0.0
2020-Aug-05 06:30N 57°26' E 010°32'0 0.0
2020-Aug-05 04:21N 57°26' E 010°32'0 0.0
2020-Aug-05 00:27N 57°26' E 010°32'0 0.0
2020-Aug-04 22:30N 57°26' E 010°32'0 0.0
2020-Aug-04 21:00N 57°26' E 010°32'0 0.0
2020-Aug-04 20:00N 57°26' E 010°32'0 0.0
2020-Aug-04 17:00N 57°26' E 010°32'0 0.0
2020-Aug-04 11:00N 57°26' E 010°32'0 0.0
2020-Aug-04 09:30N 57°26' E 010°32'0 0.0
2020-Aug-04 08:57N 57°26' E 010°32'0 0.0
2020-Aug-04 08:30N 57°26' E 010°32'0 0.0
2020-Aug-04 04:57N 57°26' E 010°32'0 0.0
2020-Aug-04 04:00N 57°26' E 010°32'0 0.0
2020-Aug-04 03:00N 57°26' E 010°32'0 0.0
2020-Aug-03 22:21N 57°26' E 010°32'0 0.0
2020-Aug-03 17:30N 57°26' E 010°32'0 0.0
2020-Aug-03 16:30N 57°26' E 010°32'0 0.0
2020-Aug-03 15:30N 57°26' E 010°32'0 0.0
2020-Aug-03 12:57N 57°26' E 010°32'0 0.0
2020-Aug-03 11:00N 57°26' E 010°32'0 0.0
2020-Aug-03 10:00N 57°26' E 010°32'0 0.0
2020-Aug-03 09:30N 57°26' E 010°32'0 0.0
2020-Aug-03 08:54N 57°26' E 010°32'0 0.0
2020-Aug-03 06:57N 57°26' E 010°32'0 0.0
2020-Aug-03 05:24N 57°26' E 010°32'0 0.0
2020-Aug-03 04:30N 57°26' E 010°32'0 0.0
2020-Aug-03 03:27N 57°26' E 010°32'0 0.0
2020-Aug-02 23:57N 57°26' E 010°32'0 0.0
2020-Aug-02 17:30N 57°26' E 010°32'0 0.0
2020-Aug-02 16:31N 57°26' E 010°32'5 1.7
2020-Aug-02 13:31N 57°22' E 010°39'1 2.3
2020-Aug-02 13:00N 57°21' E 010°40'1 2.6
2020-Aug-02 12:31N 57°20' E 010°41'7 3.6
2020-Aug-02 10:29N 57°13' E 010°44'3 7.2
2020-Aug-02 10:00N 57°09' E 010°45'32 6.3
2020-Aug-02 04:51N 56°38' E 011°02'4 6.7
2020-Aug-02 04:18N 56°35' E 011°02'1 4.7
2020-Aug-02 04:00N 56°33' E 011°01'4 4.4
2020-Aug-02 03:00N 56°29' E 011°03'5 5.2
2020-Aug-02 02:00N 56°24' E 011°04'6 6.0
2020-Aug-02 01:00N 56°18' E 010°60'13 5.4
2020-Aug-01 22:30N 56°07' E 010°46'36 5.4
2020-Aug-01 15:50N 55°38' E 010°09'1 0.2
2020-Aug-01 11:22N 55°37' E 010°10'0 0.0
2020-Aug-01 09:01N 55°37' E 010°10'0 0.0
2020-Aug-01 05:28N 55°37' E 010°10'0 0.0
2020-Aug-01 02:58N 55°37' E 010°10'0 0.0
2020-Aug-01 02:28N 55°37' E 010°10'0 0.0
2020-Aug-01 00:22N 55°37' E 010°10'0 0.0
2020-Jul-31 23:58N 55°37' E 010°10'4 0.3
2020-Jul-31 10:00N 55°40' E 010°04'6 0.3
2020-Jul-30 13:22N 55°39' E 010°14'11 3.7
2020-Jul-30 10:30N 55°46' E 010°28'8 5.5
2020-Jul-30 09:00N 55°54' E 010°29'3 6.9
2020-Jul-30 08:31N 55°58' E 010°29'11 4.5
2020-Jul-30 06:00N 56°06' E 010°15'0 0.0
2020-Jul-30 04:00N 56°06' E 010°15'0 0.0
2020-Jul-29 21:00N 56°06' E 010°15'0 0.0
2020-Jul-29 20:30N 56°06' E 010°15'0 0.0
2020-Jul-29 19:30N 56°06' E 010°15'0 0.0
2020-Jul-29 17:00N 56°06' E 010°15'0 0.0
2020-Jul-29 16:30N 56°06' E 010°15'0 0.0
2020-Jul-29 15:30N 56°06' E 010°15'0 0.0
2020-Jul-29 14:30N 56°06' E 010°15'0 0.0
2020-Jul-29 09:30N 56°06' E 010°15'0 0.0
2020-Jul-29 05:00N 56°06' E 010°15'  

Dump ship's entire track history